createdAt,value
2017-10-13T00:00:54.312Z,8.47
2017-10-13T00:10:29.579Z,8.77
2017-10-13T00:20:04.358Z,8.38
2017-10-13T00:29:38.199Z,8.18
2017-10-13T00:39:12.505Z,8.08
2017-10-13T00:48:47.351Z,8.28
2017-10-13T00:58:22.497Z,8.38
2017-10-13T01:07:59.292Z,8.28
2017-10-13T01:17:32.442Z,8.28
2017-10-13T01:27:06.968Z,8.28
2017-10-13T01:36:41.740Z,8.37
2017-10-13T01:46:16.511Z,8.28
2017-10-13T01:55:51.183Z,8.18
2017-10-13T02:05:25.828Z,8.18
2017-10-13T02:15:00.506Z,8.18
2017-10-13T02:24:34.395Z,7.88
2017-10-13T02:34:09.144Z,7.89
2017-10-13T02:43:43.934Z,7.69
2017-10-13T02:53:17.997Z,7.69
2017-10-13T03:02:52.775Z,7.59
2017-10-13T03:12:27.424Z,7.59
2017-10-13T03:22:01.652Z,7.59
2017-10-13T03:31:36.716Z,7.59
2017-10-13T03:41:11.320Z,7.49
2017-10-13T03:50:41.364Z,7.59
2017-10-13T04:00:23.090Z,7.69
2017-10-13T04:09:54.050Z,7.69
2017-10-13T04:19:34.426Z,7.49
2017-10-13T04:29:08.902Z,7.49
2017-10-13T04:38:43.640Z,7.49
2017-10-13T04:48:17.710Z,7.20
2017-10-13T04:57:52.398Z,7.00
2017-10-13T05:07:23.166Z,7.01
2017-10-13T05:16:59.626Z,6.91
2017-10-13T05:26:36.414Z,6.91
2017-10-13T05:36:17.334Z,7.01
2017-10-13T05:45:48.194Z,6.91
2017-10-13T05:55:25.026Z,7.40
2017-10-13T06:05:02.103Z,7.69
2017-10-13T06:14:38.808Z,8.18
2017-10-13T06:24:26.301Z,8.86
2017-10-13T06:34:03.006Z,9.65
2017-10-13T06:43:35.253Z,10.23
2017-10-13T06:53:16.568Z,10.72
2017-10-13T07:02:47.407Z,10.53
2017-10-13T07:12:24.676Z,10.62
2017-10-13T07:22:06.551Z,11.11
2017-10-13T07:31:38.023Z,11.60
2017-10-13T07:41:16.987Z,12.38
2017-10-13T07:50:55.234Z,12.87
2017-10-13T08:00:33.372Z,13.36
2017-10-13T08:10:11.558Z,13.95
2017-10-13T08:19:49.562Z,14.34
2017-10-13T08:29:31.615Z,15.03
2017-10-13T08:39:03.383Z,15.61
2017-10-13T08:48:41.137Z,15.61
2017-10-13T08:58:24.111Z,16.20
2017-10-13T09:07:56.893Z,17.18
2017-10-13T09:17:35.259Z,17.57
2017-10-13T09:27:12.957Z,17.76
2017-10-13T09:36:55.608Z,18.55
2017-10-13T09:46:27.708Z,18.74
2017-10-13T09:56:04.953Z,18.55
2017-10-13T10:05:42.186Z,18.64
2017-10-13T10:15:20.033Z,19.03
2017-10-13T10:24:58.255Z,19.52
2017-10-13T10:34:36.474Z,19.62
2017-10-13T10:44:13.959Z,19.62
2017-10-13T10:53:51.388Z,21.38
2017-10-13T11:03:29.417Z,22.07
2017-10-13T11:13:08.161Z,21.87
2017-10-13T11:22:45.931Z,21.38
2017-10-13T11:32:27.394Z,21.19
2017-10-13T11:41:58.834Z,22.16
2017-10-13T11:51:37.780Z,22.56
2017-10-13T12:01:19.499Z,22.36
2017-10-13T12:10:50.959Z,23.14
2017-10-13T12:20:29.656Z,23.93
2017-10-13T12:30:11.255Z,22.46
2017-10-13T12:39:42.983Z,23.93
2017-10-13T12:49:22.410Z,23.44
2017-10-13T12:59:01.380Z,24.81
2017-10-13T13:08:39.377Z,26.08
2017-10-13T13:18:19.288Z,25.39
2017-10-13T13:27:58.374Z,26.47
2017-10-13T13:37:34.893Z,27.05
2017-10-13T13:47:14.134Z,27.15
2017-10-13T13:56:53.859Z,26.76
2017-10-13T14:06:25.160Z,23.34
2017-10-13T14:16:01.775Z,22.36
2017-10-13T14:25:38.559Z,21.77
2017-10-13T14:35:14.771Z,21.38
2017-10-13T14:44:50.647Z,20.50
2017-10-13T14:54:27.078Z,20.40
2017-10-13T15:04:03.894Z,19.82
2017-10-13T15:13:39.676Z,18.64
2017-10-13T15:23:15.498Z,17.86
2017-10-13T15:32:51.927Z,17.76
2017-10-13T15:42:28.025Z,16.98
2017-10-13T15:52:05.241Z,16.20
2017-10-13T16:01:41.388Z,15.71
2017-10-13T16:11:17.359Z,15.12
2017-10-13T16:20:53.472Z,14.34
2017-10-13T16:30:29.354Z,13.65
2017-10-13T16:40:06.405Z,13.36
2017-10-13T16:49:42.935Z,13.07
2017-10-13T16:59:23.532Z,12.97
2017-10-13T17:08:58.372Z,12.58
2017-10-13T17:18:28.814Z,12.38
2017-10-13T17:28:06.676Z,11.99
2017-10-13T17:37:46.939Z,11.70
2017-10-13T17:47:21.535Z,11.60
2017-10-13T17:56:56.096Z,11.21
2017-10-13T18:06:26.521Z,11.11
2017-10-13T18:16:03.256Z,10.82
2017-10-13T18:25:39.432Z,10.82
2017-10-13T18:35:17.080Z,10.62
2017-10-13T18:44:53.922Z,10.53
2017-10-13T18:54:34.040Z,10.43
2017-10-13T19:04:04.835Z,10.23
2017-10-13T19:13:42.457Z,10.13
2017-10-13T19:23:19.392Z,9.94
2017-10-13T19:32:56.107Z,9.94
2017-10-13T19:42:32.136Z,9.74
2017-10-13T19:52:09.323Z,9.65
2017-10-13T20:01:46.914Z,9.65
2017-10-13T20:11:24.065Z,9.55
2017-10-13T20:21:05.308Z,9.45
2017-10-13T20:30:36.346Z,9.35
2017-10-13T20:40:12.354Z,9.26
2017-10-13T20:49:54.058Z,8.96
2017-10-13T20:59:24.638Z,8.96
2017-10-13T21:09:01.345Z,8.86
2017-10-13T21:18:38.196Z,8.67
2017-10-13T21:28:14.928Z,8.57
2017-10-13T21:37:51.694Z,8.67
2017-10-13T21:47:28.481Z,8.47
2017-10-13T21:57:05.362Z,8.47
2017-10-13T22:06:45.926Z,8.47
2017-10-13T22:16:20.339Z,8.28
2017-10-13T22:25:51.142Z,8.28
2017-10-13T22:35:31.753Z,8.28
2017-10-13T22:45:06.317Z,8.18
2017-10-13T22:54:36.767Z,8.08
2017-10-13T23:04:13.571Z,7.79
2017-10-13T23:13:54.488Z,7.79
2017-10-13T23:23:29.426Z,7.88
2017-10-13T23:33:00.287Z,7.59
2017-10-13T23:42:41.239Z,7.79
2017-10-13T23:52:15.932Z,7.69
